EZY57AZ EGCC-LGRP
Flight info
| Callsign | EZY57AZ |
|---|---|
| Flight time | N/A |
| Altitude | 35000 |
| Route | SONEX UL975 DESIG L603 DOLAS DCT NAVPI DCT DOJOH DCT DODEN DCT NEGIX DCT DINKU M867 XERUM DCT BAVAX DCT RADIZ DCT DOL DCT MONID DCT NAVSU DCT EMKES/N0434F370 DCT XELMI DCT AKIKA DCT ENFAR DCT PEP DCT TALAS UN130 MES UN139 LURUS UL995 CODIC |
| Aircraft | A320/M-SDE2E3FGHIJ1RWXYZ/LB1 |
Departure
| Time | N/A |
|---|---|
| Airport | Manchester Airport (EGCC) |
Arrival
| Time | 2026-04-27 13:25 |
|---|---|
| Airport | Rhodes International Airport "Diagoras" (LGRP) |
| Time | Latitude | Longitude | Altitude | Speed | Heading |
|---|---|---|---|---|---|
| 2026-04-27 11:25 | 46.20622 | 14.60798 | 35193 ft | 460 kts | 134° |
| 2026-04-27 11:26 | 46.16027 | 14.67229 | 35191 ft | 460 kts | 134° |
| 2026-04-27 11:26 | 46.11430 | 14.73644 | 35189 ft | 460 kts | 135° |
| 2026-04-27 11:27 | 46.06831 | 14.80047 | 35189 ft | 460 kts | 134° |
| 2026-04-27 11:27 | 46.02283 | 14.86438 | 35196 ft | 460 kts | 134° |
| 2026-04-27 11:28 | 45.97707 | 14.92878 | 35189 ft | 460 kts | 134° |
| 2026-04-27 11:28 | 45.93125 | 14.99302 | 35195 ft | 460 kts | 134° |
| 2026-04-27 11:29 | 45.88532 | 15.05706 | 35200 ft | 460 kts | 134° |
| 2026-04-27 11:29 | 45.83964 | 15.12047 | 35205 ft | 460 kts | 134° |
| 2026-04-27 11:30 | 45.79367 | 15.18427 | 35209 ft | 460 kts | 134° |
| 2026-04-27 11:30 | 45.74771 | 15.24808 | 35208 ft | 460 kts | 134° |
| 2026-04-27 11:31 | 45.70166 | 15.31180 | 35198 ft | 460 kts | 134° |
| 2026-04-27 11:31 | 45.65584 | 15.37493 | 35198 ft | 460 kts | 134° |
| 2026-04-27 11:32 | 45.60968 | 15.43828 | 35198 ft | 460 kts | 134° |
| 2026-04-27 11:32 | 45.56353 | 15.50154 | 35199 ft | 460 kts | 134° |
| 2026-04-27 11:33 | 45.51737 | 15.56472 | 35197 ft | 460 kts | 134° |
| 2026-04-27 11:33 | 45.47150 | 15.62742 | 35188 ft | 460 kts | 135° |
| 2026-04-27 11:34 | 45.42529 | 15.69030 | 35199 ft | 459 kts | 135° |
| 2026-04-27 11:34 | 45.37907 | 15.75308 | 35203 ft | 460 kts | 135° |
| 2026-04-27 11:35 | 45.33278 | 15.81586 | 35202 ft | 460 kts | 135° |
| 2026-04-27 11:35 | 45.28671 | 15.87818 | 35197 ft | 460 kts | 135° |
| 2026-04-27 11:36 | 45.24032 | 15.94077 | 35187 ft | 460 kts | 135° |
| 2026-04-27 11:36 | 45.19388 | 16.00333 | 35205 ft | 460 kts | 135° |
| 2026-04-27 11:37 | 45.14737 | 16.06571 | 35206 ft | 461 kts | 135° |
| 2026-04-27 11:37 | 45.10107 | 16.12756 | 35204 ft | 460 kts | 135° |
| 2026-04-27 11:38 | 45.05454 | 16.18981 | 35200 ft | 460 kts | 135° |
| 2026-04-27 11:38 | 45.00803 | 16.25190 | 35197 ft | 460 kts | 135° |
| 2026-04-27 11:39 | 44.96141 | 16.31388 | 35192 ft | 460 kts | 135° |
| 2026-04-27 11:39 | 44.91636 | 16.37705 | 35195 ft | 459 kts | 133° |
| 2026-04-27 11:40 | 44.87201 | 16.44189 | 35189 ft | 459 kts | 133° |
| 2026-04-27 11:40 | 44.82748 | 16.50643 | 35188 ft | 459 kts | 134° |
| 2026-04-27 11:41 | 44.78262 | 16.57042 | 35188 ft | 459 kts | 134° |
| 2026-04-27 11:41 | 44.73789 | 16.63370 | 35175 ft | 459 kts | 135° |
| 2026-04-27 11:42 | 44.69292 | 16.69724 | 35167 ft | 458 kts | 134° |
| 2026-04-27 11:42 | 44.64804 | 16.76073 | 35169 ft | 458 kts | 134° |
| 2026-04-27 11:43 | 44.60312 | 16.82407 | 35180 ft | 458 kts | 135° |
| 2026-04-27 11:43 | 44.56575 | 16.87662 | 35172 ft | 458 kts | 135° |
| 2026-04-27 11:44 | 44.51304 | 16.94937 | 35166 ft | 458 kts | 136° |
| 2026-04-27 11:44 | 44.46659 | 17.01027 | 35150 ft | 457 kts | 137° |
| 2026-04-27 11:45 | 44.42781 | 17.06060 | 35151 ft | 457 kts | 137° |
| 2026-04-27 11:45 | 44.38133 | 17.12135 | 35152 ft | 457 kts | 137° |
| 2026-04-27 11:46 | 44.32747 | 17.19217 | 35155 ft | 457 kts | 137° |
| 2026-04-27 11:46 | 44.28111 | 17.25296 | 35151 ft | 457 kts | 137° |
| 2026-04-27 11:47 | 44.24257 | 17.30336 | 35140 ft | 457 kts | 137° |
| 2026-04-27 11:47 | 44.19612 | 17.36388 | 35140 ft | 457 kts | 138° |
| 2026-04-27 11:48 | 44.14216 | 17.43401 | 35137 ft | 457 kts | 138° |
| 2026-04-27 11:48 | 44.10351 | 17.48413 | 35137 ft | 457 kts | 138° |
| 2026-04-27 11:49 | 44.05705 | 17.54437 | 35139 ft | 457 kts | 138° |
| 2026-04-27 11:49 | 44.01055 | 17.60448 | 35129 ft | 457 kts | 138° |
| 2026-04-27 11:50 | 43.96395 | 17.66449 | 35134 ft | 457 kts | 139° |
| 2026-04-27 11:50 | 43.90974 | 17.73419 | 35132 ft | 457 kts | 139° |
| 2026-04-27 11:51 | 43.87094 | 17.78402 | 35136 ft | 457 kts | 139° |
| 2026-04-27 11:52 | 43.80095 | 17.87382 | 35132 ft | 458 kts | 139° |
| 2026-04-27 11:52 | 43.75535 | 17.93520 | 35119 ft | 457 kts | 137° |
| 2026-04-27 11:53 | 43.71029 | 17.99733 | 35124 ft | 457 kts | 137° |
| 2026-04-27 11:53 | 43.66527 | 18.05866 | 35126 ft | 457 kts | 138° |
| 2026-04-27 11:54 | 43.61970 | 18.11984 | 35126 ft | 457 kts | 138° |
| 2026-04-27 11:54 | 43.57420 | 18.18109 | 35125 ft | 457 kts | 137° |
| 2026-04-27 11:55 | 43.52959 | 18.24352 | 35123 ft | 457 kts | 136° |
| 2026-04-27 11:55 | 43.48553 | 18.30601 | 35110 ft | 457 kts | 136° |
| 2026-04-27 11:56 | 43.44096 | 18.36854 | 35117 ft | 458 kts | 137° |
| 2026-04-27 11:56 | 43.39615 | 18.43078 | 35125 ft | 458 kts | 137° |
| 2026-04-27 11:57 | 43.35129 | 18.49286 | 35119 ft | 458 kts | 137° |
| 2026-04-27 11:57 | 43.30672 | 18.55458 | 35145 ft | 460 kts | 137° |
| 2026-04-27 11:57 | 43.28412 | 18.58585 | 35292 ft | 462 kts | 137° |
| 2026-04-27 11:58 | 43.26142 | 18.61727 | 35470 ft | 463 kts | 137° |
| 2026-04-27 11:58 | 43.23873 | 18.64865 | 35650 ft | 464 kts | 137° |
| 2026-04-27 11:58 | 43.21599 | 18.68001 | 35860 ft | 464 kts | 137° |
| 2026-04-27 11:58 | 43.19321 | 18.71136 | 36086 ft | 464 kts | 137° |
| 2026-04-27 11:59 | 43.17046 | 18.74258 | 36260 ft | 463 kts | 137° |
| 2026-04-27 11:59 | 43.14801 | 18.77337 | 36448 ft | 463 kts | 137° |
| 2026-04-27 11:59 | 43.12526 | 18.80461 | 36632 ft | 464 kts | 137° |
| 2026-04-27 11:59 | 43.10244 | 18.83590 | 36804 ft | 464 kts | 137° |
| 2026-04-27 12:00 | 43.07963 | 18.86716 | 36998 ft | 464 kts | 137° |
| 2026-04-27 12:00 | 43.05680 | 18.89840 | 37122 ft | 465 kts | 137° |
| 2026-04-27 12:00 | 43.03394 | 18.92966 | 37127 ft | 465 kts | 137° |
| 2026-04-27 12:01 | 42.98852 | 18.99164 | 37129 ft | 465 kts | 137° |
| 2026-04-27 12:01 | 42.94281 | 19.05389 | 37125 ft | 465 kts | 137° |
| 2026-04-27 12:02 | 42.89691 | 19.11613 | 37121 ft | 465 kts | 137° |
| 2026-04-27 12:02 | 42.85099 | 19.17824 | 37126 ft | 465 kts | 137° |
| 2026-04-27 12:03 | 42.80535 | 19.23998 | 37121 ft | 465 kts | 137° |
| 2026-04-27 12:03 | 42.75933 | 19.30198 | 37111 ft | 466 kts | 137° |
| 2026-04-27 12:04 | 42.71322 | 19.36394 | 37113 ft | 466 kts | 137° |
| 2026-04-27 12:04 | 42.66706 | 19.42596 | 37132 ft | 466 kts | 138° |
| 2026-04-27 12:05 | 42.62121 | 19.48750 | 37134 ft | 466 kts | 137° |
| 2026-04-27 12:05 | 42.57505 | 19.54928 | 37144 ft | 466 kts | 137° |
| 2026-04-27 12:06 | 42.52883 | 19.61084 | 37146 ft | 465 kts | 138° |
| 2026-04-27 12:06 | 42.48177 | 19.67021 | 37148 ft | 465 kts | 140° |
| 2026-04-27 12:07 | 42.43360 | 19.72844 | 37156 ft | 464 kts | 140° |
| 2026-04-27 12:07 | 42.38544 | 19.78669 | 37151 ft | 464 kts | 140° |
| 2026-04-27 12:08 | 42.33759 | 19.84536 | 37162 ft | 464 kts | 140° |
| 2026-04-27 12:08 | 42.29021 | 19.90369 | 37161 ft | 464 kts | 140° |
| 2026-04-27 12:09 | 42.24246 | 19.96216 | 37159 ft | 464 kts | 140° |
| 2026-04-27 12:09 | 42.19464 | 20.02049 | 37159 ft | 463 kts | 140° |
| 2026-04-27 12:10 | 42.14676 | 20.07869 | 37161 ft | 463 kts | 140° |
| 2026-04-27 12:10 | 42.09891 | 20.13671 | 37159 ft | 463 kts | 140° |
| 2026-04-27 12:11 | 42.05135 | 20.19427 | 37164 ft | 463 kts | 140° |
| 2026-04-27 12:11 | 42.00346 | 20.25214 | 37152 ft | 463 kts | 140° |
| 2026-04-27 12:12 | 41.95555 | 20.30994 | 37155 ft | 463 kts | 140° |
| 2026-04-27 12:12 | 41.90767 | 20.36765 | 37159 ft | 463 kts | 140° |
| 2026-04-27 12:13 | 41.86008 | 20.42493 | 37153 ft | 463 kts | 140° |
| 2026-04-27 12:13 | 41.81206 | 20.48244 | 37159 ft | 463 kts | 140° |
| 2026-04-27 12:14 | 41.76620 | 20.54294 | 37151 ft | 465 kts | 129° |
| 2026-04-27 12:14 | 41.73098 | 20.61559 | 37136 ft | 466 kts | 122° |
| 2026-04-27 12:15 | 41.69694 | 20.68871 | 37140 ft | 466 kts | 123° |
| 2026-04-27 12:15 | 41.66246 | 20.76214 | 37135 ft | 466 kts | 123° |
| 2026-04-27 12:16 | 41.62801 | 20.83560 | 37147 ft | 466 kts | 123° |
| 2026-04-27 12:16 | 41.59352 | 20.90909 | 37149 ft | 467 kts | 123° |
| 2026-04-27 12:17 | 41.55922 | 20.98202 | 37145 ft | 467 kts | 123° |
| 2026-04-27 12:17 | 41.52461 | 21.05531 | 37148 ft | 467 kts | 123° |
| 2026-04-27 12:18 | 41.48990 | 21.12858 | 37146 ft | 467 kts | 123° |
| 2026-04-27 12:18 | 41.45523 | 21.20176 | 37151 ft | 467 kts | 123° |
| 2026-04-27 12:19 | 41.42081 | 21.27448 | 37153 ft | 467 kts | 123° |
| 2026-04-27 12:19 | 41.38603 | 21.34754 | 37142 ft | 467 kts | 124° |
| 2026-04-27 12:20 | 41.35119 | 21.42045 | 37150 ft | 467 kts | 124° |
| 2026-04-27 12:20 | 41.31522 | 21.49237 | 37156 ft | 466 kts | 127° |
| 2026-04-27 12:21 | 41.27677 | 21.56100 | 37159 ft | 466 kts | 129° |
| 2026-04-27 12:21 | 41.23739 | 21.62934 | 37160 ft | 465 kts | 129° |
| 2026-04-27 12:22 | 41.19858 | 21.69812 | 37161 ft | 465 kts | 128° |
| 2026-04-27 12:22 | 41.16012 | 21.76721 | 37161 ft | 466 kts | 128° |
| 2026-04-27 12:23 | 41.12162 | 21.83636 | 37168 ft | 466 kts | 128° |
| 2026-04-27 12:23 | 41.08328 | 21.90486 | 37149 ft | 466 kts | 128° |
| 2026-04-27 12:24 | 41.04456 | 21.97360 | 37156 ft | 465 kts | 129° |
| 2026-04-27 12:24 | 41.00557 | 22.04199 | 37163 ft | 466 kts | 129° |
| 2026-04-27 12:25 | 40.96639 | 22.11045 | 37174 ft | 467 kts | 129° |
| 2026-04-27 12:25 | 40.92750 | 22.17844 | 37174 ft | 467 kts | 129° |
| 2026-04-27 12:26 | 40.88833 | 22.24687 | 37186 ft | 467 kts | 129° |
| 2026-04-27 12:26 | 40.84916 | 22.31531 | 37189 ft | 467 kts | 129° |
| 2026-04-27 12:27 | 40.80992 | 22.38361 | 37193 ft | 467 kts | 129° |
| 2026-04-27 12:27 | 40.77078 | 22.45128 | 37177 ft | 467 kts | 129° |
| 2026-04-27 12:28 | 40.73141 | 22.51942 | 37187 ft | 467 kts | 129° |
| 2026-04-27 12:28 | 40.69207 | 22.58758 | 37199 ft | 467 kts | 129° |
| 2026-04-27 12:29 | 40.65272 | 22.65561 | 37205 ft | 467 kts | 129° |
| 2026-04-27 12:29 | 40.61350 | 22.72298 | 37211 ft | 467 kts | 129° |
| 2026-04-27 12:30 | 40.57396 | 22.79080 | 37212 ft | 467 kts | 129° |
| 2026-04-27 12:30 | 40.53440 | 22.85850 | 37225 ft | 467 kts | 129° |
| 2026-04-27 12:31 | 40.49488 | 22.92615 | 37231 ft | 467 kts | 129° |
| 2026-04-27 12:31 | 40.45532 | 22.99289 | 37229 ft | 465 kts | 134° |
| 2026-04-27 12:32 | 40.41103 | 23.05450 | 37203 ft | 464 kts | 136° |
| 2026-04-27 12:32 | 40.36652 | 23.11588 | 37205 ft | 464 kts | 136° |
| 2026-04-27 12:33 | 40.32207 | 23.17715 | 37209 ft | 464 kts | 136° |
| 2026-04-27 12:33 | 40.27797 | 23.23791 | 37212 ft | 463 kts | 136° |
| 2026-04-27 12:34 | 40.23361 | 23.29904 | 37213 ft | 463 kts | 136° |
| 2026-04-27 12:34 | 40.18922 | 23.36001 | 37208 ft | 462 kts | 136° |
| 2026-04-27 12:35 | 40.14477 | 23.42078 | 37200 ft | 462 kts | 136° |
| 2026-04-27 12:35 | 40.10062 | 23.48095 | 37208 ft | 462 kts | 136° |
| 2026-04-27 12:36 | 40.05621 | 23.54149 | 37208 ft | 462 kts | 136° |
| 2026-04-27 12:36 | 40.01171 | 23.60196 | 37209 ft | 462 kts | 136° |
| 2026-04-27 12:37 | 39.96725 | 23.66237 | 37210 ft | 462 kts | 136° |
| 2026-04-27 12:37 | 39.92308 | 23.72241 | 37212 ft | 462 kts | 136° |
| 2026-04-27 12:38 | 39.87848 | 23.78271 | 37207 ft | 462 kts | 136° |
| 2026-04-27 12:38 | 39.83374 | 23.84294 | 37211 ft | 463 kts | 136° |
| 2026-04-27 12:39 | 39.78904 | 23.90317 | 37211 ft | 463 kts | 136° |
| 2026-04-27 12:39 | 39.74460 | 23.96301 | 37213 ft | 463 kts | 136° |
| 2026-04-27 12:40 | 39.69977 | 24.02309 | 37214 ft | 463 kts | 136° |
| 2026-04-27 12:40 | 39.65491 | 24.08302 | 37213 ft | 463 kts | 136° |
| 2026-04-27 12:41 | 39.61008 | 24.14288 | 37211 ft | 462 kts | 136° |
| 2026-04-27 12:41 | 39.56563 | 24.20230 | 37206 ft | 462 kts | 136° |
| 2026-04-27 12:42 | 39.52086 | 24.26194 | 37200 ft | 461 kts | 136° |
| 2026-04-27 12:42 | 39.47601 | 24.32142 | 37202 ft | 462 kts | 136° |
| 2026-04-27 12:43 | 39.43113 | 24.38084 | 37206 ft | 462 kts | 136° |
| 2026-04-27 12:43 | 39.38631 | 24.44016 | 37202 ft | 461 kts | 136° |
| 2026-04-27 12:44 | 39.34178 | 24.49899 | 37197 ft | 460 kts | 136° |
| 2026-04-27 12:44 | 39.29711 | 24.55825 | 37184 ft | 460 kts | 135° |
| 2026-04-27 12:45 | 39.25275 | 24.61778 | 37184 ft | 460 kts | 135° |
| 2026-04-27 12:45 | 39.20843 | 24.67725 | 37174 ft | 460 kts | 135° |
| 2026-04-27 12:46 | 39.16427 | 24.73610 | 37183 ft | 460 kts | 136° |
| 2026-04-27 12:46 | 39.11973 | 24.79521 | 37173 ft | 460 kts | 136° |
| 2026-04-27 12:47 | 39.07503 | 24.85411 | 37172 ft | 460 kts | 136° |
| 2026-04-27 12:47 | 39.02993 | 24.91251 | 37174 ft | 460 kts | 136° |
| 2026-04-27 12:48 | 38.98506 | 24.97026 | 37163 ft | 459 kts | 136° |
| 2026-04-27 12:48 | 38.94004 | 25.02844 | 37156 ft | 459 kts | 136° |
| 2026-04-27 12:49 | 38.89499 | 25.08667 | 37159 ft | 459 kts | 136° |
| 2026-04-27 12:49 | 38.84989 | 25.14474 | 37148 ft | 459 kts | 136° |
| 2026-04-27 12:50 | 38.80506 | 25.20236 | 37151 ft | 459 kts | 136° |
| 2026-04-27 12:50 | 38.75990 | 25.26033 | 37152 ft | 460 kts | 136° |
| 2026-04-27 12:51 | 38.71467 | 25.31822 | 37146 ft | 460 kts | 136° |
| 2026-04-27 12:51 | 38.66980 | 25.37569 | 37139 ft | 460 kts | 136° |
| 2026-04-27 12:52 | 38.62458 | 25.43354 | 37140 ft | 459 kts | 136° |
| 2026-04-27 12:52 | 38.57929 | 25.49115 | 37149 ft | 459 kts | 136° |
| 2026-04-27 12:53 | 38.51128 | 25.57730 | 37127 ft | 459 kts | 136° |
| 2026-04-27 12:53 | 38.46629 | 25.63432 | 37124 ft | 459 kts | 136° |
| 2026-04-27 12:54 | 38.42101 | 25.69163 | 37118 ft | 459 kts | 136° |
| 2026-04-27 12:54 | 38.37570 | 25.74887 | 37105 ft | 458 kts | 136° |
| 2026-04-27 12:55 | 38.33048 | 25.80610 | 37110 ft | 458 kts | 136° |
| 2026-04-27 12:55 | 38.28556 | 25.86289 | 37097 ft | 458 kts | 137° |
| 2026-04-27 12:56 | 38.23486 | 25.91083 | 37087 ft | 453 kts | 155° |
| 2026-04-27 12:56 | 38.17659 | 25.94006 | 37085 ft | 450 kts | 163° |
| 2026-04-27 12:57 | 38.11756 | 25.96682 | 37075 ft | 450 kts | 163° |
| 2026-04-27 12:57 | 38.05900 | 25.99343 | 37078 ft | 450 kts | 162° |
| 2026-04-27 12:58 | 37.99996 | 26.02025 | 37076 ft | 450 kts | 163° |
| 2026-04-27 12:58 | 37.94095 | 26.04706 | 37078 ft | 451 kts | 163° |
| 2026-04-27 12:59 | 37.88191 | 26.07380 | 37059 ft | 451 kts | 163° |
| 2026-04-27 12:59 | 37.82328 | 26.10034 | 37067 ft | 451 kts | 163° |
| 2026-04-27 13:00 | 37.76422 | 26.12701 | 37070 ft | 451 kts | 163° |
| 2026-04-27 13:00 | 37.70513 | 26.15360 | 37067 ft | 451 kts | 163° |
| 2026-04-27 13:01 | 37.64602 | 26.18020 | 37064 ft | 451 kts | 163° |
| 2026-04-27 13:01 | 37.58737 | 26.20663 | 37066 ft | 451 kts | 163° |
| 2026-04-27 13:02 | 37.52825 | 26.23314 | 37065 ft | 451 kts | 163° |
| 2026-04-27 13:02 | 37.46911 | 26.25958 | 37053 ft | 451 kts | 163° |
| 2026-04-27 13:03 | 37.41042 | 26.28581 | 37031 ft | 452 kts | 163° |
| 2026-04-27 13:03 | 37.38076 | 26.29902 | 36776 ft | 452 kts | 163° |
| 2026-04-27 13:03 | 37.35120 | 26.31222 | 36273 ft | 450 kts | 163° |
| 2026-04-27 13:04 | 37.32178 | 26.32535 | 35718 ft | 448 kts | 162° |
| 2026-04-27 13:04 | 37.29248 | 26.33838 | 35166 ft | 446 kts | 162° |
| 2026-04-27 13:04 | 37.26328 | 26.35135 | 34616 ft | 444 kts | 162° |
| 2026-04-27 13:04 | 37.23412 | 26.36424 | 34043 ft | 444 kts | 162° |
| 2026-04-27 13:05 | 37.20543 | 26.37696 | 33421 ft | 442 kts | 162° |
| 2026-04-27 13:05 | 37.17657 | 26.38981 | 32836 ft | 439 kts | 162° |
| 2026-04-27 13:05 | 37.14783 | 26.40260 | 32280 ft | 437 kts | 162° |
| 2026-04-27 13:05 | 37.11922 | 26.41533 | 31697 ft | 435 kts | 162° |
| 2026-04-27 13:06 | 37.09081 | 26.42831 | 30989 ft | 437 kts | 158° |
| 2026-04-27 13:06 | 37.06434 | 26.44807 | 29794 ft | 452 kts | 141° |
| 2026-04-27 13:06 | 37.04327 | 26.47760 | 28829 ft | 457 kts | 123° |
| 2026-04-27 13:06 | 37.02673 | 26.51116 | 28330 ft | 450 kts | 122° |
| 2026-04-27 13:07 | 37.01049 | 26.54388 | 27748 ft | 446 kts | 122° |
| 2026-04-27 13:07 | 36.99411 | 26.57663 | 27182 ft | 442 kts | 122° |
| 2026-04-27 13:07 | 36.97776 | 26.60892 | 26630 ft | 438 kts | 123° |
| 2026-04-27 13:07 | 36.96074 | 26.64037 | 26073 ft | 434 kts | 125° |
| 2026-04-27 13:08 | 36.94326 | 26.67090 | 25533 ft | 430 kts | 126° |
| 2026-04-27 13:08 | 36.92557 | 26.70086 | 25023 ft | 427 kts | 126° |
| 2026-04-27 13:08 | 36.90796 | 26.73051 | 24492 ft | 423 kts | 126° |
| 2026-04-27 13:08 | 36.89059 | 26.75997 | 24018 ft | 419 kts | 126° |
| 2026-04-27 13:09 | 36.87375 | 26.78892 | 23497 ft | 416 kts | 125° |
| 2026-04-27 13:09 | 36.85702 | 26.81812 | 23008 ft | 411 kts | 125° |
| 2026-04-27 13:09 | 36.84055 | 26.84705 | 22559 ft | 406 kts | 125° |
| 2026-04-27 13:09 | 36.82428 | 26.87557 | 22079 ft | 401 kts | 125° |
| 2026-04-27 13:10 | 36.80815 | 26.90377 | 21648 ft | 398 kts | 124° |
| 2026-04-27 13:10 | 36.79214 | 26.93172 | 21195 ft | 394 kts | 124° |
| 2026-04-27 13:10 | 36.77625 | 26.95942 | 20738 ft | 391 kts | 125° |
| 2026-04-27 13:10 | 36.76045 | 26.98693 | 20268 ft | 389 kts | 125° |
| 2026-04-27 13:11 | 36.74491 | 27.01396 | 19811 ft | 387 kts | 125° |
| 2026-04-27 13:11 | 36.72923 | 27.04116 | 19344 ft | 386 kts | 125° |
| 2026-04-27 13:11 | 36.71357 | 27.06824 | 18858 ft | 385 kts | 125° |
| 2026-04-27 13:11 | 36.69793 | 27.09526 | 18393 ft | 384 kts | 125° |
| 2026-04-27 13:12 | 36.68243 | 27.12231 | 17863 ft | 382 kts | 122° |
| 2026-04-27 13:12 | 36.67001 | 27.15134 | 17395 ft | 378 kts | 112° |
| 2026-04-27 13:12 | 36.65970 | 27.18135 | 16925 ft | 376 kts | 112° |
| 2026-04-27 13:12 | 36.64934 | 27.21114 | 16433 ft | 374 kts | 112° |
| 2026-04-27 13:13 | 36.63913 | 27.24029 | 15972 ft | 372 kts | 112° |
| 2026-04-27 13:13 | 36.62878 | 27.26967 | 15520 ft | 370 kts | 113° |
| 2026-04-27 13:13 | 36.61847 | 27.29891 | 15054 ft | 368 kts | 112° |
| 2026-04-27 13:13 | 36.60819 | 27.32798 | 14597 ft | 366 kts | 113° |
| 2026-04-27 13:14 | 36.59797 | 27.35692 | 14148 ft | 364 kts | 113° |
| 2026-04-27 13:14 | 36.58782 | 27.38573 | 13662 ft | 363 kts | 113° |
| 2026-04-27 13:14 | 36.57778 | 27.41435 | 13170 ft | 360 kts | 112° |
| 2026-04-27 13:14 | 36.56777 | 27.44280 | 12704 ft | 357 kts | 112° |
| 2026-04-27 13:15 | 36.55781 | 27.47099 | 12231 ft | 354 kts | 113° |
| 2026-04-27 13:15 | 36.54806 | 27.49856 | 11761 ft | 352 kts | 113° |
| 2026-04-27 13:15 | 36.53823 | 27.52630 | 11282 ft | 349 kts | 113° |
| 2026-04-27 13:15 | 36.52847 | 27.55385 | 10792 ft | 347 kts | 113° |
| 2026-04-27 13:16 | 36.51879 | 27.58120 | 10379 ft | 343 kts | 113° |
| 2026-04-27 13:16 | 36.50936 | 27.60781 | 10251 ft | 330 kts | 113° |
| 2026-04-27 13:16 | 36.50029 | 27.63342 | 10132 ft | 318 kts | 114° |
| 2026-04-27 13:16 | 36.49151 | 27.65810 | 10009 ft | 306 kts | 114° |
| 2026-04-27 13:17 | 36.48300 | 27.68192 | 9849 ft | 297 kts | 113° |
| 2026-04-27 13:17 | 36.47482 | 27.70487 | 9577 ft | 292 kts | 113° |
| 2026-04-27 13:17 | 36.46698 | 27.72801 | 9220 ft | 290 kts | 108° |
| 2026-04-27 13:17 | 36.46263 | 27.75233 | 8850 ft | 288 kts | 98° |
| 2026-04-27 13:18 | 36.45942 | 27.77680 | 8463 ft | 286 kts | 98° |
| 2026-04-27 13:18 | 36.45619 | 27.80113 | 8085 ft | 285 kts | 99° |
| 2026-04-27 13:18 | 36.45294 | 27.82533 | 7708 ft | 283 kts | 99° |
| 2026-04-27 13:18 | 36.44966 | 27.84942 | 7331 ft | 282 kts | 99° |
| 2026-04-27 13:19 | 36.44639 | 27.87336 | 6957 ft | 281 kts | 99° |
| 2026-04-27 13:19 | 36.44320 | 27.89688 | 6590 ft | 279 kts | 99° |
| 2026-04-27 13:19 | 36.44001 | 27.92059 | 6210 ft | 278 kts | 99° |
| 2026-04-27 13:19 | 36.43702 | 27.94414 | 6000 ft | 276 kts | 94° |
| 2026-04-27 13:20 | 36.43857 | 27.96766 | 5665 ft | 273 kts | 77° |
| 2026-04-27 13:20 | 36.44266 | 27.99071 | 5235 ft | 273 kts | 76° |
| 2026-04-27 13:20 | 36.44698 | 28.01364 | 4834 ft | 272 kts | 76° |
| 2026-04-27 13:20 | 36.45122 | 28.03647 | 4423 ft | 271 kts | 75° |
| 2026-04-27 13:21 | 36.45541 | 28.05923 | 4011 ft | 270 kts | 76° |
| 2026-04-27 13:21 | 36.45960 | 28.08191 | 3601 ft | 269 kts | 76° |
| 2026-04-27 13:21 | 36.46364 | 28.10432 | 3359 ft | 257 kts | 74° |
| 2026-04-27 13:21 | 36.46710 | 28.12493 | 3237 ft | 238 kts | 76° |
| 2026-04-27 13:22 | 36.47030 | 28.14442 | 3114 ft | 223 kts | 77° |
| 2026-04-27 13:22 | 36.47322 | 28.16265 | 2992 ft | 206 kts | 82° |
| 2026-04-27 13:22 | 36.47009 | 28.17927 | 2792 ft | 198 kts | 129° |
| 2026-04-27 13:22 | 36.45887 | 28.18764 | 2671 ft | 187 kts | 172° |
| 2026-04-27 13:23 | 36.44634 | 28.18559 | 2328 ft | 181 kts | 207° |
| 2026-04-27 13:23 | 36.43630 | 28.17681 | 1901 ft | 173 kts | 230° |
| 2026-04-27 13:23 | 36.42972 | 28.16507 | 1453 ft | 162 kts | 245° |
| 2026-04-27 13:23 | 36.42524 | 28.15273 | 1081 ft | 153 kts | 251° |
| 2026-04-27 13:24 | 36.42157 | 28.14076 | 868 ft | 146 kts | 252° |
| 2026-04-27 13:24 | 36.41807 | 28.12918 | 618 ft | 141 kts | 249° |
| 2026-04-27 13:24 | 36.41465 | 28.11770 | 368 ft | 140 kts | 249° |
| 2026-04-27 13:24 | 36.41136 | 28.10639 | 120 ft | 137 kts | 249° |
| 2026-04-27 13:25 | 36.40816 | 28.09562 | 31 ft | 123 kts | 249° |
| 2026-04-27 13:25 | 36.40576 | 28.08752 | 29 ft | 75 kts | 250° |
| 2026-04-27 13:25 | 36.40448 | 28.08318 | 28 ft | 42 kts | 250° |
| 2026-04-27 13:25 | 36.40347 | 28.08046 | 29 ft | 26 kts | 234° |
| 2026-04-27 13:26 | 36.40239 | 28.07908 | 28 ft | 20 kts | 221° |
| 2026-04-27 13:26 | 36.40160 | 28.07861 | 28 ft | 10 kts | 167° |
| 2026-04-27 13:26 | 36.40154 | 28.07930 | 28 ft | 8 kts | 70° |
| 2026-04-27 13:26 | 36.40175 | 28.08002 | 28 ft | 11 kts | 70° |
| 2026-04-27 13:27 | 36.40204 | 28.08097 | 28 ft | 11 kts | 68° |
| 2026-04-27 13:27 | 36.40230 | 28.08184 | 28 ft | 11 kts | 71° |
| 2026-04-27 13:27 | 36.40256 | 28.08275 | 28 ft | 12 kts | 71° |
| 2026-04-27 13:27 | 36.40286 | 28.08382 | 28 ft | 14 kts | 70° |
| 2026-04-27 13:28 | 36.40323 | 28.08509 | 28 ft | 17 kts | 69° |
| 2026-04-27 13:28 | 36.40364 | 28.08647 | 28 ft | 17 kts | 71° |
| 2026-04-27 13:28 | 36.40398 | 28.08780 | 28 ft | 15 kts | 79° |
| 2026-04-27 13:28 | 36.40397 | 28.08905 | 28 ft | 14 kts | 96° |
| 2026-04-27 13:29 | 36.40402 | 28.09010 | 28 ft | 10 kts | 75° |
| 2026-04-27 13:29 | 36.40424 | 28.09091 | 28 ft | 8 kts | 77° |
| 2026-04-27 13:29 | 36.40391 | 28.09126 | 28 ft | 6 kts | 163° |
| 2026-04-27 13:29 | 36.40367 | 28.09137 | 28 ft | 0 kts | 159° |
| 2026-04-27 13:30 | 36.40365 | 28.09138 | 28 ft | 0 kts | 159° |